Time;durP1;ratioP1;P1;durP2;ratioP2;P2;SDS_P1;SDS_P2;PMS_P1;PMS_P2;Temp;Humidity;BMP_temperature;BMP_pressure;BME280_temperature;BME280_humidity;BME280_pressure;Samples;Min_cycle;Max_cycle;Signal;HPM_P1;HPM_P2
2022/08/23 00:02:27;;;;;;;;;;;;;;;24.21;69.19;100140.47;7407018;19;1771;-55
2022/08/23 00:04:56;;;;;;;;;;;;;;;24.24;69.17;100158.16;7406853;19;1573;-55
2022/08/23 00:07:25;;;;;;;;;;;;;;;24.31;69.06;100155.56;7406161;19;1867;-55
2022/08/23 00:09:53;;;;;;;;;;;;;;;24.33;68.69;100167.03;7406466;19;1558;-72
2022/08/23 00:12:24;;;;;;;;;;;;;;;24.31;68.62;100158.25;7408886;19;1436;-55
2022/08/23 00:14:54;;;;;;;;;;;;;;;24.29;68.59;100157.59;7407083;19;1765;-72
2022/08/23 00:17:22;;;;;;;;;;;;;;;24.35;68.67;100160.44;7408186;19;1514;-71
2022/08/23 00:19:51;;;;;;;;;;;;;;;24.28;68.88;100162.19;7407561;19;1566;-55
2022/08/23 00:22:19;;;;;;;;;;;;;;;24.18;69.07;100172.44;7408224;19;1525;-72
2022/08/23 00:24:48;;;;;;;;;;;;;;;24.14;69.21;100165.72;7408412;19;1763;-61
2022/08/23 00:27:17;;;;;;;;;;;;;;;24.26;68.68;100174.22;7406079;19;1842;-72
2022/08/23 00:29:49;;;;;;;;;;;;;;;24.24;68.42;100170.84;7405282;19;1569;-55
2022/08/23 00:32:19;;;;;;;;;;;;;;;24.19;68.90;100164.13;7406519;19;1289;-55
2022/08/23 00:34:48;;;;;;;;;;;;;;;24.24;68.42;100171.69;7406065;19;1713;-55
2022/08/23 00:37:17;;;;;;;;;;;;;;;24.26;68.60;100158.81;7407026;19;1851;-72
2022/08/23 00:39:46;;;;;;;;;;;;;;;24.28;68.66;100161.34;7406485;19;1416;-73
2022/08/23 00:47:43;;;;;;;;;;;;;;;24.27;68.36;100154.25;7405846;19;1850;-54
2022/08/23 00:50:16;;;;;;;;;;;;;;;24.15;68.66;100162.84;7405201;19;1250;-60
2022/08/23 00:52:47;;;;;;;;;;;;;;;24.24;68.45;100141.13;7404180;19;1301;-56
2022/08/23 00:55:18;;;;;;;;;;;;;;;24.26;68.00;100152.59;7405743;19;1264;-55
2022/08/23 00:57:47;;;;;;;;;;;;;;;24.34;68.09;100164.13;7404638;19;1362;-71
2022/08/23 01:00:18;;;;;;;;;;;;;;;24.31;68.25;100158.25;7406944;19;1298;-55
2022/08/23 01:02:47;;;;;;;;;;;;;;;24.34;68.07;100160.59;7402264;19;1456;-55
2022/08/23 01:05:16;;;;;;;;;;;;;;;24.31;67.98;100158.25;7404559;19;1324;-54
2022/08/23 01:07:48;;;;;;;;;;;;;;;24.23;68.09;100159.19;7403252;19;1864;-55
2022/08/23 01:10:21;;;;;;;;;;;;;;;24.18;68.26;100148.94;7405553;19;1289;-72
2022/08/23 01:12:52;;;;;;;;;;;;;;;24.21;67.97;100156.69;7404407;19;1514;-55
2022/08/23 01:15:25;;;;;;;;;;;;;;;24.28;67.94;100155.94;7404086;19;1653;-55
2022/08/23 01:17:57;;;;;;;;;;;;;;;24.30;67.94;100143.91;7405270;19;1601;-55
2022/08/23 01:20:27;;;;;;;;;;;;;;;24.33;67.98;100162.47;7403502;19;1348;-72
2022/08/23 01:22:59;;;;;;;;;;;;;;;24.24;68.20;100160.03;7406186;19;1566;-72
2022/08/23 01:25:32;;;;;;;;;;;;;;;24.29;67.69;100153.06;7406229;19;1380;-73
2022/08/23 01:28:01;;;;;;;;;;;;;;;24.31;68.16;100160.97;7405857;19;1849;-55
2022/08/23 01:30:32;;;;;;;;;;;;;;;24.24;68.11;100160.03;7403788;19;1763;-56
2022/08/23 01:33:02;;;;;;;;;;;;;;;24.25;67.99;100159.00;7405048;19;1573;-67
2022/08/23 01:35:37;;;;;;;;;;;;;;;24.30;68.16;100162.84;7405452;19;1545;-73
2022/08/23 01:38:05;;;;;;;;;;;;;;;24.29;68.02;100152.22;7405278;19;1549;-55
2022/08/23 01:40:37;;;;;;;;;;;;;;;24.18;68.25;100167.03;7404591;19;1388;-73
2022/08/23 01:43:05;;;;;;;;;;;;;;;24.15;68.25;100173.63;7406931;19;995;-72
2022/08/23 01:45:34;;;;;;;;;;;;;;;24.21;68.14;100154.00;7404767;19;1274;-73
2022/08/23 01:48:03;;;;;;;;;;;;;;;24.20;67.85;100163.09;7404358;19;1857;-73
2022/08/23 01:50:32;;;;;;;;;;;;;;;24.10;68.44;100164.41;7403641;19;1448;-57
2022/08/23 01:53:01;;;;;;;;;;;;;;;24.10;67.99;100165.25;7404691;19;1630;-72
2022/08/23 01:55:29;;;;;;;;;;;;;;;24.03;68.37;100158.88;7404812;19;1306;-72
2022/08/23 01:58:01;;;;;;;;;;;;;;;24.09;67.97;100155.44;7403678;19;1436;-55
2022/08/23 02:00:32;;;;;;;;;;;;;;;24.28;67.81;100174.84;7399923;19;1687;-55
2022/08/23 02:03:01;;;;;;;;;;;;;;;24.32;67.65;100154.56;7397679;19;1313;-55
2022/08/23 02:05:30;;;;;;;;;;;;;;;24.27;67.65;100155.09;7408636;19;1323;-72
2022/08/23 02:08:59;;;;;;;;;;;;;;;24.28;67.52;100153.25;7409008;19;1852;-55
2022/08/23 02:10:46;;;;;;;;;;;;;;;24.22;67.67;100152.94;7408225;19;1683;-55
2022/08/23 02:13:18;;;;;;;;;;;;;;;24.26;67.96;100182.31;7410129;19;1561;-55
2022/08/23 02:15:50;;;;;;;;;;;;;;;24.24;67.31;100158.16;7408617;19;1627;-65
2022/08/23 02:18:18;;;;;;;;;;;;;;;24.21;67.74;100178.31;7411514;19;1620;-55
2022/08/23 02:20:47;;;;;;;;;;;;;;;24.25;67.43;100183.31;7410721;19;1388;-56
2022/08/23 02:23:16;;;;;;;;;;;;;;;24.20;67.62;100197.38;7409836;19;1424;-62
2022/08/23 02:25:44;;;;;;;;;;;;;;;24.11;67.83;100188.50;7411940;19;1342;-71
2022/08/23 02:28:12;;;;;;;;;;;;;;;24.25;67.49;100207.63;7410639;19;1868;-71
2022/08/23 02:30:45;;;;;;;;;;;;;;;24.13;67.59;100191.91;7409752;19;1059;-55
2022/08/23 02:33:14;;;;;;;;;;;;;;;24.10;67.23;100211.16;7409687;19;1664;-56
2022/08/23 02:35:43;;;;;;;;;;;;;;;24.02;67.84;100209.38;7409875;19;1414;-71
2022/08/23 02:38:13;;;;;;;;;;;;;;;23.95;67.70;100212.97;7410057;19;1589;-71
2022/08/23 02:40:42;;;;;;;;;;;;;;;24.01;67.85;100225.75;7410848;19;1522;-71
2022/08/23 02:43:10;;;;;;;;;;;;;;;24.21;68.02;100224.22;7409907;19;1355;-56
2022/08/23 02:45:39;;;;;;;;;;;;;;;24.33;67.74;100218.38;7410311;19;1573;-59
2022/08/23 02:48:10;;;;;;;;;;;;;;;24.20;68.17;100214.44;7408575;19;1850;-67
2022/08/23 02:50:39;;;;;;;;;;;;;;;24.13;68.41;100223.44;7408998;19;1529;-57
2022/08/23 02:53:07;;;;;;;;;;;;;;;24.17;68.76;100228.31;7409375;19;1605;-56
2022/08/23 02:55:35;;;;;;;;;;;;;;;24.21;68.40;100221.53;7409905;19;1534;-73
2022/08/23 02:58:04;;;;;;;;;;;;;;;24.20;68.30;100227.94;7408789;19;1681;-56
2022/08/23 03:00:33;;;;;;;;;;;;;;;24.19;68.35;100228.97;7407305;19;1732;-73
2022/08/23 03:03:01;;;;;;;;;;;;;;;24.08;68.22;100226.72;7403465;19;1184;-73
2022/08/23 03:05:32;;;;;;;;;;;;;;;23.98;68.64;100245.03;7403679;19;1763;-73
2022/08/23 03:08:01;;;;;;;;;;;;;;;24.02;68.21;100230.13;7403476;19;1842;-56
2022/08/23 03:10:29;;;;;;;;;;;;;;;24.08;68.05;100226.72;7406767;19;1601;-74
2022/08/23 03:12:58;;;;;;;;;;;;;;;23.97;68.23;100243.34;7405124;19;1372;-56
2022/08/23 03:15:27;;;;;;;;;;;;;;;23.81;68.59;100237.06;7402751;19;1774;-73
2022/08/23 03:17:55;;;;;;;;;;;;;;;23.81;68.59;100237.06;7409115;19;1530;-56
2022/08/23 03:20:23;;;;;;;;;;;;;;;24.01;67.98;100240.09;7407319;19;1541;-72
2022/08/23 03:22:54;;;;;;;;;;;;;;;24.15;67.71;100235.78;7409287;19;1359;-73
2022/08/23 03:25:23;;;;;;;;;;;;;;;24.14;67.53;100242.19;7409838;19;1525;-73
2022/08/23 03:27:52;;;;;;;;;;;;;;;24.02;67.97;100238.25;7409760;19;1853;-73
2022/08/23 03:30:20;;;;;;;;;;;;;;;24.02;67.93;100241.78;7409000;19;1691;-56
2022/08/23 03:32:49;;;;;;;;;;;;;;;24.04;68.24;100247.00;7407535;19;1634;-56
2022/08/23 03:35:17;;;;;;;;;;;;;;;24.05;67.68;100242.44;7410047;19;1541;-56
2022/08/23 03:37:46;;;;;;;;;;;;;;;23.95;67.79;100258.88;7408571;19;1537;-56
2022/08/23 03:40:17;;;;;;;;;;;;;;;23.84;68.13;100262.03;7408019;19;1719;-55
2022/08/23 03:42:45;;;;;;;;;;;;;;;23.82;68.08;100254.94;7409189;19;1444;-73
2022/08/23 03:45:14;;;;;;;;;;;;;;;24.09;67.71;100254.56;7408204;19;1636;-55
2022/08/23 03:47:43;;;;;;;;;;;;;;;24.20;67.11;100264.94;7407702;19;1865;-56
2022/08/23 03:50:12;;;;;;;;;;;;;;;24.26;67.17;100263.38;7407675;19;1582;-55
2022/08/23 03:52:40;;;;;;;;;;;;;;;24.22;67.11;100247.50;7407248;19;1605;-72
2022/08/23 03:55:09;;;;;;;;;;;;;;;24.18;67.04;100262.41;7406867;19;1581;-72
2022/08/23 03:57:40;;;;;;;;;;;;;;;24.08;67.43;100251.03;7406928;19;1554;-59
2022/08/23 04:00:10;;;;;;;;;;;;;;;24.05;67.49;100264.88;7403889;19;1620;-56
2022/08/23 04:02:39;;;;;;;;;;;;;;;24.09;67.42;100278.88;7404442;19;1542;-73
2022/08/23 04:05:09;;;;;;;;;;;;;;;24.07;67.29;100262.81;7407640;19;1436;-56
2022/08/23 04:07:38;;;;;;;;;;;;;;;23.99;67.60;100271.00;7408393;19;1399;-73
2022/08/23 04:10:08;;;;;;;;;;;;;;;23.99;67.20;100268.31;7408108;19;1597;-56
2022/08/23 04:12:36;;;;;;;;;;;;;;;24.04;67.13;100279.41;7408036;19;1337;-72
2022/08/23 04:15:08;;;;;;;;;;;;;;;24.09;67.26;100270.75;7405203;19;1612;-71
2022/08/23 04:17:36;;;;;;;;;;;;;;;24.19;66.80;100272.22;7408151;19;1644;-72
2022/08/23 04:20:05;;;;;;;;;;;;;;;24.44;66.32;100276.56;7406743;19;1353;-72
2022/08/23 04:22:34;;;;;;;;;;;;;;;24.78;64.99;100278.75;7407806;19;1379;-73
2022/08/23 04:25:02;;;;;;;;;;;;;;;25.16;64.22;100284.06;7407525;19;1679;-72
2022/08/23 04:27:30;;;;;;;;;;;;;;;25.34;63.85;100279.13;7405109;19;1648;-56
2022/08/23 04:29:59;;;;;;;;;;;;;;;25.30;63.69;100261.59;7405976;19;1845;-72
2022/08/23 04:32:30;;;;;;;;;;;;;;;25.26;63.73;100268.41;7406950;19;1604;-73
2022/08/23 04:35:01;;;;;;;;;;;;;;;24.64;65.49;100263.38;7405226;19;1565;-57
2022/08/23 04:37:29;;;;;;;;;;;;;;;24.41;66.77;100286.69;7405922;19;1739;-72
2022/08/23 04:42:39;;;;;;;;;;;;;;;24.34;66.81;100271.41;7407413;19;1294;-73
2022/08/23 04:45:08;;;;;;;;;;;;;;;24.39;66.90;100283.34;7405344;19;1657;-56
2022/08/23 04:47:43;;;;;;;;;;;;;;;24.45;66.41;100280.91;7405168;19;1274;-68
2022/08/23 04:50:11;;;;;;;;;;;;;;;24.25;67.27;100275.19;7404320;19;1854;-56
2022/08/23 04:52:40;;;;;;;;;;;;;;;24.04;68.18;100274.00;7406555;19;1598;-70
2022/08/23 04:55:09;;;;;;;;;;;;;;;24.30;67.33;100272.78;7406498;19;1608;-73
2022/08/23 04:57:37;;;;;;;;;;;;;;;24.43;66.92;100267.56;7405507;19;1628;-54
2022/08/23 05:00:06;;;;;;;;;;;;;;;24.45;67.18;100270.94;7406003;19;1700;-55
2022/08/23 05:02:35;;;;;;;;;;;;;;;24.52;66.97;100271.09;7405624;19;1466;-56
2022/08/23 05:05:06;;;;;;;;;;;;;;;24.57;66.63;100266.81;7404938;19;1403;-72
2022/08/23 05:07:34;;;;;;;;;;;;;;;24.70;66.44;100284.25;7405852;19;1253;-72
2022/08/23 05:10:02;;;;;;;;;;;;;;;24.52;66.50;100271.91;7403443;19;1857;-54
2022/08/23 05:12:31;;;;;;;;;;;;;;;24.66;66.28;100278.38;7404389;19;1549;-55
2022/08/23 05:14:59;;;;;;;;;;;;;;;24.77;66.01;100274.38;7402578;19;2007;-56
2022/08/23 05:17:28;;;;;;;;;;;;;;;23.97;66.07;100275.75;7404500;19;1447;-75
2022/08/23 05:19:56;;;;;;;;;;;;;;;23.11;66.00;100277.56;7406150;19;1561;-74
2022/08/23 05:22:27;;;;;;;;;;;;;;;22.80;65.48;100286.38;7404034;19;1585;-56
2022/08/23 05:24:55;;;;;;;;;;;;;;;22.71;65.41;100287.41;7405141;19;1624;-73
2022/08/23 05:27:24;;;;;;;;;;;;;;;22.75;65.19;100288.75;7402884;19;1533;-55
2022/08/23 05:29:53;;;;;;;;;;;;;;;22.89;65.98;100284.50;7403402;19;1859;-57
2022/08/23 05:32:21;;;;;;;;;;;;;;;23.05;66.03;100283.66;7406154;19;1533;-73
2022/08/23 05:34:50;;;;;;;;;;;;;;;23.03;66.70;100292.75;7406778;19;1915;-73
2022/08/23 05:37:18;;;;;;;;;;;;;;;23.09;67.19;100290.38;7404852;19;1672;-73
2022/08/23 05:39:49;;;;;;;;;;;;;;;23.08;67.58;100288.69;7412369;19;1538;-73
2022/08/23 05:42:18;;;;;;;;;;;;;;;23.17;67.88;100290.34;7412517;19;1340;-56
2022/08/23 05:44:46;;;;;;;;;;;;;;;23.05;68.11;100289.88;7413859;19;1731;-56
2022/08/23 05:47:18;;;;;;;;;;;;;;;23.02;68.59;100296.47;7412121;19;1758;-73
2022/08/23 05:49:46;;;;;;;;;;;;;;;23.10;68.43;100279.41;7409334;19;1846;-73
2022/08/23 05:52:15;;;;;;;;;;;;;;;23.16;68.90;100288.69;7412143;19;1558;-54
2022/08/23 05:54:43;;;;;;;;;;;;;;;23.23;68.91;100295.03;7412314;19;1533;-56
2022/08/23 05:57:14;;;;;;;;;;;;;;;23.22;69.28;100296.91;7412810;19;1526;-73
2022/08/23 05:59:43;;;;;;;;;;;;;;;23.25;69.21;100301.09;7412793;19;1592;-73
2022/08/23 06:02:11;;;;;;;;;;;;;;;23.03;67.79;100291.91;7408270;19;1667;-73
2022/08/23 06:04:41;;;;;;;;;;;;;;;22.92;67.33;100298.50;7410279;19;1349;-72
2022/08/23 06:07:10;;;;;;;;;;;;;;;22.68;67.25;100303.91;7411817;19;1252;-72
2022/08/23 06:09:38;;;;;;;;;;;;;;;22.73;66.35;100304.25;7407970;19;1853;-55
2022/08/23 06:12:07;;;;;;;;;;;;;;;22.67;66.25;100286.06;7412753;19;972;-55
2022/08/23 06:14:39;;;;;;;;;;;;;;;22.51;65.93;100286.94;7408026;19;1755;-74
2022/08/23 06:17:08;;;;;;;;;;;;;;;22.63;65.36;100301.75;7411056;19;1532;-56
2022/08/23 06:19:36;;;;;;;;;;;;;;;22.55;65.01;100315.22;7411800;19;1609;-73
2022/08/23 06:22:05;;;;;;;;;;;;;;;22.48;64.75;100287.28;7410712;19;1620;-55
2022/08/23 06:24:33;;;;;;;;;;;;;;;22.50;64.91;100307.66;7408288;19;1428;-56
2022/08/23 06:27:01;;;;;;;;;;;;;;;22.49;64.40;100294.34;7407776;19;1472;-73
2022/08/23 06:29:30;;;;;;;;;;;;;;;22.46;64.38;100295.50;7409220;19;1862;-73
2022/08/23 06:32:01;;;;;;;;;;;;;;;22.47;64.48;100302.59;7409297;19;1738;-56
2022/08/23 06:34:32;;;;;;;;;;;;;;;22.40;64.26;100298.88;7408968;19;1534;-55
2022/08/23 06:37:02;;;;;;;;;;;;;;;22.54;63.80;100303.63;7406631;19;1400;-72
2022/08/23 06:39:31;;;;;;;;;;;;;;;22.47;64.07;100307.16;7410286;19;1565;-71
2022/08/23 06:42:01;;;;;;;;;;;;;;;22.34;63.84;100313.03;7409798;19;1356;-72
2022/08/23 06:44:31;;;;;;;;;;;;;;;22.41;63.54;100308.66;7409373;19;1360;-56
2022/08/23 06:47:02;;;;;;;;;;;;;;;22.43;63.72;100328.19;7410152;19;1554;-55
2022/08/23 06:49:30;;;;;;;;;;;;;;;22.40;63.41;100302.44;7407239;19;1826;-56
2022/08/23 06:52:00;;;;;;;;;;;;;;;22.38;63.35;100314.38;7410766;19;1550;-68
2022/08/23 06:54:30;;;;;;;;;;;;;;;22.32;63.50;100331.22;7410274;19;1534;-56
2022/08/23 06:56:59;;;;;;;;;;;;;;;22.32;63.14;100326.69;7411083;19;1495;-71
2022/08/23 06:59:27;;;;;;;;;;;;;;;22.34;63.17;100326.50;7409208;19;1636;-71
2022/08/23 07:01:57;;;;;;;;;;;;;;;22.38;63.22;100330.56;7407047;19;1668;-56
2022/08/23 07:04:29;;;;;;;;;;;;;;;22.36;62.92;100338.81;7409937;19;1584;-71
2022/08/23 07:06:57;;;;;;;;;;;;;;;;;;7409040;19;1541;-56
2022/08/23 07:09:26;;;;;;;;;;;;;;;22.56;62.98;100328.53;7406573;19;1857;-68
2022/08/23 07:11:54;;;;;;;;;;;;;;;22.95;63.29;100319.69;7405786;19;1758;-74
2022/08/23 07:14:24;;;;;;;;;;;;;;;23.10;65.10;100327.09;7404979;19;1434;-77
2022/08/23 07:16:53;;;;;;;;;;;;;;;23.14;65.53;100321.22;7407846;19;1311;-77
2022/08/23 07:19:23;;;;;;;;;;;;;;;23.17;65.85;100333.50;7408648;19;1545;-71
2022/08/23 07:21:54;;;;;;;;;;;;;;;23.09;65.75;100325.44;7409876;19;1280;-72
2022/08/23 07:24:23;;;;;;;;;;;;;;;23.16;65.50;100312.94;7408102;19;1256;-72
2022/08/23 07:26:53;;;;;;;;;;;;;;;23.10;65.96;100313.63;7407148;19;1314;-72
2022/08/23 07:29:22;;;;;;;;;;;;;;;23.16;65.87;100318.34;7407616;19;1871;-71
2022/08/23 07:31:52;;;;;;;;;;;;;;;23.11;65.93;100318.00;7406680;19;1755;-56
2022/08/23 07:34:20;;;;;;;;;;;;;;;23.12;65.77;100319.69;7407876;19;1313;-71
2022/08/23 07:36:50;;;;;;;;;;;;;;;23.18;65.98;100311.75;7406143;19;1830;-55
2022/08/23 07:39:22;;;;;;;;;;;;;;;23.19;65.71;100308.03;7408408;19;1639;-70
2022/08/23 07:41:51;;;;;;;;;;;;;;;23.37;65.51;100309.66;7407600;19;1582;-62
2022/08/23 07:44:19;;;;;;;;;;;;;;;23.26;65.71;100318.97;7407269;19;1434;-56
2022/08/23 07:46:48;;;;;;;;;;;;;;;23.21;66.05;100291.66;7407874;19;1435;-69
2022/08/23 07:49:17;;;;;;;;;;;;;;;23.30;65.85;100317.59;7406014;19;1862;-56
2022/08/23 07:51:48;;;;;;;;;;;;;;;23.27;65.73;100326.03;7408472;19;1771;-56
2022/08/23 07:54:18;;;;;;;;;;;;;;;23.40;65.34;100315.53;7406640;19;1604;-56
2022/08/23 07:56:49;;;;;;;;;;;;;;;23.50;64.96;100326.13;7407285;19;1730;-55
2022/08/23 07:59:17;;;;;;;;;;;;;;;23.29;65.60;100317.78;7406799;19;1617;-56
2022/08/23 08:01:45;;;;;;;;;;;;;;;23.46;65.28;100329.31;7405139;19;1526;-67
2022/08/23 08:04:14;;;;;;;;;;;;;;;23.41;65.15;100338.78;7403720;19;1476;-59
2022/08/23 08:06:44;;;;;;;;;;;;;;;23.38;65.73;100322.97;7405497;19;1647;-77
2022/08/23 08:09:14;;;;;;;;;;;;;;;23.37;65.76;100334.75;7404474;19;1866;-78
2022/08/23 08:11:43;;;;;;;;;;;;;;;23.26;65.79;100324.38;7408660;19;1473;-74
2022/08/23 08:14:14;;;;;;;;;;;;;;;23.28;65.85;100325.03;7405433;19;1470;-65
2022/08/23 08:16:44;;;;;;;;;;;;;;;23.23;66.12;100327.41;7405595;19;1668;-55
2022/08/23 08:19:14;;;;;;;;;;;;;;;23.33;65.86;100319.94;7405940;19;2106;-56
2022/08/23 08:21:44;;;;;;;;;;;;;;;23.42;66.01;100318.91;7404709;19;1470;-76
2022/08/23 08:24:14;;;;;;;;;;;;;;;23.63;65.33;100320.13;7405530;19;1784;-57
2022/08/23 08:26:43;;;;;;;;;;;;;;;23.59;65.15;100305.31;7405925;19;1744;-68
2022/08/23 08:29:15;;;;;;;;;;;;;;;23.66;65.44;100318.97;7405311;19;1853;-70
2022/08/23 08:31:45;;;;;;;;;;;;;;;23.73;65.53;100320.75;7405892;19;1522;-74
2022/08/23 08:34:14;;;;;;;;;;;;;;;23.63;65.89;100325.53;7407946;19;1617;-76
2022/08/23 08:36:43;;;;;;;;;;;;;;;23.57;66.04;100313.59;7404961;19;1605;-56
2022/08/23 08:39:12;;;;;;;;;;;;;;;23.70;66.08;100340.03;7407095;19;1455;-64
2022/08/23 08:41:47;;;;;;;;;;;;;;;23.64;65.85;100292.16;7403974;19;1691;-71
2022/08/23 08:44:24;;;;;;;;;;;;;;;23.61;66.62;100305.97;7405074;19;1445;-55
2022/08/23 08:46:55;;;;;;;;;;;;;;;23.69;66.80;100303.22;7402461;19;1570;-68
2022/08/23 08:49:32;;;;;;;;;;;;;;;23.87;66.83;100296.75;7405720;19;1845;-77
2022/08/23 08:52:04;;;;;;;;;;;;;;;23.82;66.58;100311.63;7406513;19;1530;-55
2022/08/23 08:54:32;;;;;;;;;;;;;;;23.76;67.00;100315.00;7407215;19;1636;-74
2022/08/23 08:57:02;;;;;;;;;;;;;;;23.90;66.32;100318.00;7406968;19;1731;-74
2022/08/23 08:59:44;;;;;;;;;;;;;;;23.87;66.13;100337.25;7405164;19;1535;-73
2022/08/23 09:02:17;;;;;;;;;;;;;;;23.66;66.45;100318.97;7404293;19;1587;-63
2022/08/23 09:04:46;;;;;;;;;;;;;;;23.53;66.53;100319.53;7407756;19;1632;-72
2022/08/23 09:07:18;;;;;;;;;;;;;;;23.57;66.25;100320.84;7405381;19;1252;-55
2022/08/23 09:09:55;;;;;;;;;;;;;;;23.53;65.77;100311.44;7402969;19;1867;-60
2022/08/23 09:12:29;;;;;;;;;;;;;;;23.42;65.98;100316.19;7406128;19;1463;-62
2022/08/23 09:15:05;;;;;;;;;;;;;;;23.39;65.82;100326.50;7405052;19;1466;-60
2022/08/23 09:17:42;;;;;;;;;;;;;;;23.33;65.65;100322.63;7406948;19;1327;-60
2022/08/23 09:20:12;;;;;;;;;;;;;;;23.41;65.05;100322.59;7405075;19;1505;-72
2022/08/23 09:22:41;;;;;;;;;;;;;;;23.41;65.16;100322.59;7403948;19;1494;-55
2022/08/23 09:25:10;;;;;;;;;;;;;;;23.43;64.96;100298.97;7405916;19;1613;-55
2022/08/23 09:27:40;;;;;;;;;;;;;;;23.59;65.02;100308.84;7404698;19;1760;-55
2022/08/23 09:30:12;;;;;;;;;;;;;;;23.68;65.23;100298.03;7401595;19;1840;-73
2022/08/23 09:32:42;;;;;;;;;;;;;;;23.64;65.12;100302.94;7405132;19;1693;-56
2022/08/23 09:35:16;;;;;;;;;;;;;;;23.52;65.71;100318.69;7404049;19;1532;-69
2022/08/23 09:37:50;;;;;;;;;;;;;;;23.39;65.81;100292.25;7404136;19;1417;-60
2022/08/23 09:40:23;;;;;;;;;;;;;;;23.35;65.55;100290.09;7403308;19;1298;-67
2022/08/23 09:43:04;;;;;;;;;;;;;;;23.49;65.51;100291.22;7402312;19;1489;-66
2022/08/23 09:45:36;;;;;;;;;;;;;;;23.34;65.87;100288.44;7403123;19;1662;-60
2022/08/23 09:48:05;;;;;;;;;;;;;;;23.32;65.47;100280.50;7403564;19;1347;-60
2022/08/23 09:50:37;;;;;;;;;;;;;;;23.49;65.64;100285.81;7402915;19;1850;-56
2022/08/23 09:53:07;;;;;;;;;;;;;;;23.40;65.87;100272.38;7404677;19;1533;-59
2022/08/23 09:55:37;;;;;;;;;;;;;;;23.49;65.21;100283.09;7402443;19;1704;-56
2022/08/23 09:58:07;;;;;;;;;;;;;;;23.48;65.79;100263.38;7402571;19;1443;-69
2022/08/23 10:00:39;;;;;;;;;;;;;;;23.32;65.85;100275.09;7403566;19;1513;-56
2022/08/23 10:03:24;;;;;;;;;;;;;;;23.37;65.92;100282.66;7403955;19;1751;-69
2022/08/23 10:05:54;;;;;;;;;;;;;;;23.45;65.64;100265.59;7403852;19;1715;-57
2022/08/23 10:08:27;;;;;;;;;;;;;;;23.37;65.50;100258.38;7402188;19;1767;-62
2022/08/23 10:10:58;;;;;;;;;;;;;;;23.46;65.60;100269.97;7401007;19;1855;-72
2022/08/23 10:13:27;;;;;;;;;;;;;;;23.29;66.29;100275.44;7402331;19;1400;-61
2022/08/23 10:16:03;;;;;;;;;;;;;;;23.31;65.89;100265.31;7401773;19;1488;-70
2022/08/23 10:18:37;;;;;;;;;;;;;;;23.32;65.92;100271.56;7402803;19;1317;-67
2022/08/23 10:21:08;;;;;;;;;;;;;;;23.43;65.64;100261.19;7403395;19;1436;-72
2022/08/23 10:23:42;;;;;;;;;;;;;;;23.48;65.44;100267.94;7403386;19;1420;-70
2022/08/23 10:26:18;;;;;;;;;;;;;;;23.51;65.39;100267.59;7408721;19;1415;-57
2022/08/23 10:31:40;;;;;;;;;;;;;;;23.43;65.36;100274.69;7408491;19;1850;-57
2022/08/23 10:34:17;;;;;;;;;;;;;;;23.49;65.30;100264.22;7410768;19;1495;-57
2022/08/23 10:36:52;;;;;;;;;;;;;;;23.50;64.88;100265.91;7409466;19;1191;-69
2022/08/23 10:39:25;;;;;;;;;;;;;;;23.57;65.05;100277.66;7410849;19;1467;-56
2022/08/23 10:42:00;;;;;;;;;;;;;;;23.41;65.63;100257.00;7410807;19;1508;-56
2022/08/23 10:44:34;;;;;;;;;;;;;;;23.37;65.42;100275.41;7409064;19;1668;-57
2022/08/23 10:47:12;;;;;;;;;;;;;;;23.41;65.55;100279.44;7410162;19;1344;-56
2022/08/23 10:49:42;;;;;;;;;;;;;;;23.30;65.54;100282.53;7410484;19;1486;-57
2022/08/23 10:52:14;;;;;;;;;;;;;;;23.24;65.54;100269.75;7407800;19;1869;-68
2022/08/23 10:54:58;;;;;;;;;;;;;;;23.34;65.52;100281.16;7409455;19;1533;-66
2022/08/23 10:57:29;;;;;;;;;;;;;;;23.13;65.81;100281.75;7409381;19;1531;-68
2022/08/23 10:59:58;;;;;;;;;;;;;;;23.29;65.50;100275.44;7409990;19;1530;-57
2022/08/23 11:02:34;;;;;;;;;;;;;;;23.35;65.66;100285.53;7407350;19;1581;-63
2022/08/23 11:05:04;;;;;;;;;;;;;;;23.20;65.49;100287.31;7408011;19;1296;-68
2022/08/23 11:07:35;;;;;;;;;;;;;;;23.29;65.25;100288.94;7409482;19;1542;-68
2022/08/23 11:10:11;;;;;;;;;;;;;;;23.19;65.73;100285.59;7408645;19;1846;-56
2022/08/23 11:12:52;;;;;;;;;;;;;;;23.20;65.43;100279.22;7409047;19;1440;-56
2022/08/23 11:15:26;;;;;;;;;;;;;;;23.32;65.03;100293.16;7407098;19;1669;-69
2022/08/23 11:18:00;;;;;;;;;;;;;;;23.25;65.54;100290.31;7407788;19;1495;-53
2022/08/23 11:20:43;;;;;;;;;;;;;;;23.14;66.28;100277.19;7408999;19;1539;-68
2022/08/23 11:23:15;;;;;;;;;;;;;;;23.33;66.62;100276.78;7407592;19;1507;-56
2022/08/23 11:25:44;;;;;;;;;;;;;;;23.45;67.06;100271.00;7404498;19;1503;-56
2022/08/23 11:28:37;;;;;;;;;;;;;;;23.48;67.66;100273.34;7409312;19;1436;-63
2022/08/23 11:31:20;;;;;;;;;;;;;;;23.48;68.06;100265.25;7405567;19;1867;-65
2022/08/23 11:33:52;;;;;;;;;;;;;;;23.59;68.71;100267.53;7407794;19;1711;-66
2022/08/23 11:36:23;;;;;;;;;;;;;;;23.57;69.11;100256.06;7407699;19;1364;-56
2022/08/23 11:39:09;;;;;;;;;;;;;;;23.53;69.40;100254.75;7408041;19;1646;-64
2022/08/23 11:41:57;;;;;;;;;;;;;;;23.59;69.95;100265.66;7406545;19;1653;-58
2022/08/23 11:44:28;;;;;;;;;;;;;;;23.28;69.97;100254.03;7407829;19;1548;-63
2022/08/23 11:47:00;;;;;;;;;;;;;;;23.15;70.01;100260.00;7406261;19;1400;-64
2022/08/23 11:49:55;;;;;;;;;;;;;;;23.11;69.54;100258.69;7406091;19;1549;-64
2022/08/23 11:52:36;;;;;;;;;;;;;;;22.93;69.48;100253.50;7402726;19;1855;-63
2022/08/23 11:55:19;;;;;;;;;;;;;;;22.89;69.70;100247.59;7407938;19;1612;-56
2022/08/23 11:57:56;;;;;;;;;;;;;;;22.86;69.27;100263.28;7404451;19;1349;-56
2022/08/23 12:00:26;;;;;;;;;;;;;;;22.86;69.30;100256.03;7406787;19;1652;-60
2022/08/23 12:03:00;;;;;;;;;;;;;;;22.95;69.15;100265.78;7405274;19;1629;-56
2022/08/23 12:05:41;;;;;;;;;;;;;;;22.85;69.03;100232.78;7406688;19;1712;-56
2022/08/23 12:08:24;;;;;;;;;;;;;;;22.89;69.19;100236.81;7405372;19;1597;-62
2022/08/23 12:11:10;;;;;;;;;;;;;;;22.89;68.90;100230.59;7405632;19;1856;-57
2022/08/23 12:13:56;;;;;;;;;;;;;;;22.89;68.93;100236.81;7405775;19;1430;-65
2022/08/23 12:16:30;;;;;;;;;;;;;;;22.86;68.74;100226.38;7404071;19;1642;-64
2022/08/23 12:19:01;;;;;;;;;;;;;;;22.78;68.83;100235.34;7405291;19;1402;-61
2022/08/23 12:21:34;;;;;;;;;;;;;;;22.76;68.93;100220.34;7404782;19;1724;-57
2022/08/23 12:24:04;;;;;;;;;;;;;;;22.84;68.43;100214.94;7405410;19;1439;-58
2022/08/23 12:26:40;;;;;;;;;;;;;;;22.73;68.74;100204.53;7406380;19;1424;-64
2022/08/23 12:29:13;;;;;;;;;;;;;;;22.76;68.71;100206.84;7405906;19;1341;-57
2022/08/23 12:31:49;;;;;;;;;;;;;;;22.77;68.55;100203.16;7405721;19;1859;-57
2022/08/23 12:34:22;;;;;;;;;;;;;;;22.74;68.52;100195.41;7406060;19;1565;-56
2022/08/23 12:36:58;;;;;;;;;;;;;;;22.90;67.97;100210.69;7404791;19;1307;-73
2022/08/23 12:39:29;;;;;;;;;;;;;;;22.98;67.84;100213.38;7404690;19;1339;-64
2022/08/23 12:42:04;;;;;;;;;;;;;;;22.86;68.00;100207.53;7403776;19;1604;-66
2022/08/23 12:44:33;;;;;;;;;;;;;;;22.94;67.97;100198.53;7403617;19;1612;-56
2022/08/23 12:47:11;;;;;;;;;;;;;;;23.22;67.00;100196.25;7405592;19;1247;-57
2022/08/23 12:49:40;;;;;;;;;;;;;;;23.20;67.20;100196.44;7404061;19;1535;-57
2022/08/23 12:52:09;;;;;;;;;;;;;;;23.07;67.77;100201.53;7403803;19;1842;-57
2022/08/23 12:54:39;;;;;;;;;;;;;;;23.00;67.53;100190.59;7402629;19;1512;-57
2022/08/23 12:57:14;;;;;;;;;;;;;;;23.11;67.55;100197.47;7403609;19;1723;-60
2022/08/23 12:59:47;;;;;;;;;;;;;;;23.18;67.48;100198.47;7403598;19;1566;-56
2022/08/23 13:02:18;;;;;;;;;;;;;;;23.14;67.41;100190.88;7403924;19;1863;-60
2022/08/23 13:04:47;;;;;;;;;;;;;;;23.07;67.65;100190.75;7403324;19;1624;-62
2022/08/23 13:07:19;;;;;;;;;;;;;;;23.23;67.81;100192.53;7405050;19;1529;-59
2022/08/23 13:09:48;;;;;;;;;;;;;;;23.29;67.89;100209.88;7404605;19;1431;-60
2022/08/23 13:12:20;;;;;;;;;;;;;;;23.29;68.02;100199.91;7404263;19;1865;-55
2022/08/23 13:14:49;;;;;;;;;;;;;;;23.35;68.01;100201.88;7404827;19;1507;-60
2022/08/23 13:17:22;;;;;;;;;;;;;;;23.59;67.88;100192.78;7404729;19;1664;-61
2022/08/23 13:19:52;;;;;;;;;;;;;;;23.40;68.03;100196.81;7404681;19;1577;-61